CZ-0040 weather

Hospital Heliport
Pelhřimov, Vysočina Region, Czech Republic

Public forecast

Using degrees Celsius for public forecast. Weather courtesy of forecast.io.

Closest aviation weather report (METAR) to Hospital Heliport

Closest report is Čáslav Air Base, 30.8 nm (57.1 km) N. Retrieved 2020/04/05 10:00 UTC (10 minutes ago):

LKCV 051000Z 08010KT 050V120 CAVOK 13/M02 Q1029 NOSIG RMK BLU BLU

Closest aviation forecast (TAF) to Hospital Heliport

Closest forecast is Čáslav Air Base, 30.8 nm (57.1 km) N. Retrieved 2020/04/05 06:00 UTC (4 hours ago):

TAF LKCV 050500Z 0506/0606 13004KT CAVOK BECMG 0507/0510 10010KT TEMPO 0509/0520 12016KT PROB40 TEMPO 0510/0518 12016G26KT BECMG 0604/0606 14014KT